createdAt,value
2023-05-08T00:02:14.525Z,3.03
2023-05-08T00:04:41.730Z,2.70
2023-05-08T00:07:08.967Z,3.43
2023-05-08T00:09:36.449Z,2.97
2023-05-08T00:12:03.763Z,3.10
2023-05-08T00:14:30.852Z,3.00
2023-05-08T00:16:58.047Z,2.93
2023-05-08T00:19:25.629Z,2.77
2023-05-08T00:21:52.731Z,3.03
2023-05-08T00:24:19.749Z,2.77
2023-05-08T00:26:46.753Z,3.10
2023-05-08T00:29:13.888Z,2.80
2023-05-08T00:31:40.994Z,3.10
2023-05-08T00:34:08.103Z,3.20
2023-05-08T00:36:35.176Z,3.03
2023-05-08T00:39:02.266Z,3.03
2023-05-08T00:41:29.418Z,2.70
2023-05-08T00:43:56.524Z,3.33
2023-05-08T00:46:23.825Z,3.10
2023-05-08T00:48:51.030Z,2.90
2023-05-08T00:51:18.314Z,3.00
2023-05-08T00:53:45.894Z,3.10
2023-05-08T00:56:16.990Z,3.07
2023-05-08T00:58:45.695Z,3.03
2023-05-08T01:01:13.579Z,2.70
2023-05-08T01:03:41.707Z,3.40
2023-05-08T01:06:09.329Z,3.30
2023-05-08T01:08:36.705Z,3.20
2023-05-08T01:11:40.519Z,2.73
2023-05-08T01:14:29.798Z,3.80
2023-05-08T01:17:39.239Z,3.50
2023-05-08T01:20:22.280Z,3.00
2023-05-08T01:23:16.839Z,2.90
2023-05-08T01:26:47.764Z,3.00
2023-05-08T01:29:30.888Z,3.23
2023-05-08T01:32:36.413Z,3.23
2023-05-08T01:35:32.766Z,3.60
2023-05-08T01:38:40.009Z,3.20
2023-05-08T01:41:25.748Z,3.50
2023-05-08T01:44:17.489Z,3.30
2023-05-08T01:46:53.399Z,3.07
2023-05-08T01:50:10.730Z,3.17
2023-05-08T01:52:51.309Z,3.30
2023-05-08T01:55:30.624Z,3.13
2023-05-08T01:57:59.843Z,3.73
2023-05-08T02:00:28.627Z,3.13
2023-05-08T02:02:58.317Z,3.30
2023-05-08T02:05:28.041Z,2.93
2023-05-08T02:07:56.619Z,3.50
2023-05-08T02:10:25.291Z,3.53
2023-05-08T02:12:53.764Z,3.00
2023-05-08T02:15:23.028Z,3.07
2023-05-08T02:17:50.956Z,3.80
2023-05-08T02:20:20.393Z,3.57
2023-05-08T02:22:51.772Z,3.50
2023-05-08T02:25:20.509Z,3.10
2023-05-08T02:27:50.660Z,3.70
2023-05-08T02:30:19.618Z,3.23
2023-05-08T02:32:49.765Z,3.37
2023-05-08T02:35:19.806Z,3.67
2023-05-08T02:37:55.370Z,3.50
2023-05-08T02:40:28.129Z,3.37
2023-05-08T02:42:56.085Z,3.13
2023-05-08T02:45:29.491Z,3.70
2023-05-08T02:48:22.859Z,2.83
2023-05-08T02:51:14.609Z,4.00
2023-05-08T02:53:57.152Z,3.47
2023-05-08T02:56:50.308Z,3.90
2023-05-08T02:59:28.658Z,3.90
2023-05-08T03:02:22.383Z,3.60
2023-05-08T03:05:00.157Z,3.17
2023-05-08T03:07:30.474Z,3.77
2023-05-08T03:10:10.762Z,3.93
2023-05-08T03:12:45.852Z,3.40
2023-05-08T03:15:42.039Z,3.60
2023-05-08T03:18:19.457Z,4.20
2023-05-08T03:20:52.688Z,4.17
2023-05-08T03:23:22.093Z,3.60
2023-05-08T03:25:49.267Z,4.00
2023-05-08T03:28:17.684Z,3.57
2023-05-08T03:30:44.987Z,3.90
2023-05-08T03:33:13.507Z,4.50
2023-05-08T03:35:42.493Z,4.10
2023-05-08T03:38:10.076Z,4.43
2023-05-08T03:40:39.075Z,3.83
2023-05-08T03:43:11.231Z,3.73
2023-05-08T03:45:41.536Z,3.93
2023-05-08T03:48:10.870Z,3.83
2023-05-08T03:50:38.962Z,3.87
2023-05-08T03:53:06.317Z,4.03
2023-05-08T03:55:33.711Z,4.00
2023-05-08T03:58:24.991Z,4.40
2023-05-08T04:01:39.923Z,4.10
2023-05-08T04:04:24.372Z,4.97
2023-05-08T04:07:42.968Z,4.37
2023-05-08T04:10:21.116Z,3.97
2023-05-08T04:13:22.667Z,4.43
2023-05-08T04:16:21.795Z,4.20
2023-05-08T04:18:54.338Z,4.47
2023-05-08T04:21:26.167Z,4.90
2023-05-08T04:23:56.148Z,4.57
2023-05-08T04:26:23.210Z,4.27
2023-05-08T04:28:50.974Z,4.50
2023-05-08T04:31:20.139Z,4.33
2023-05-08T04:33:47.624Z,3.90
2023-05-08T04:36:15.076Z,3.67
2023-05-08T04:38:42.210Z,3.73
2023-05-08T04:41:09.491Z,4.17
2023-05-08T04:43:37.099Z,3.77
2023-05-08T04:46:06.260Z,4.03
2023-05-08T04:48:33.948Z,3.93
2023-05-08T04:51:01.357Z,3.60
2023-05-08T04:53:31.536Z,4.20
2023-05-08T04:55:59.314Z,3.77
2023-05-08T04:58:26.589Z,4.13
2023-05-08T05:00:53.657Z,4.23
2023-05-08T05:03:20.783Z,3.83
2023-05-08T05:05:47.944Z,3.80
2023-05-08T05:08:15.002Z,3.70
2023-05-08T05:10:42.140Z,3.67
2023-05-08T05:13:09.505Z,4.10
2023-05-08T05:15:36.747Z,3.87
2023-05-08T05:18:03.922Z,3.97
2023-05-08T05:20:31.375Z,4.07
2023-05-08T05:22:58.413Z,3.57
2023-05-08T05:25:25.797Z,3.27
2023-05-08T05:27:54.022Z,3.33
2023-05-08T05:30:21.439Z,3.37
2023-05-08T05:32:52.451Z,2.90
2023-05-08T05:35:19.557Z,2.67
2023-05-08T05:37:46.757Z,2.90
2023-05-08T05:40:16.814Z,3.30
2023-05-08T05:42:50.832Z,3.10
2023-05-08T05:45:18.470Z,3.50
2023-05-08T05:47:50.585Z,2.67
2023-05-08T05:50:18.768Z,2.93
2023-05-08T05:52:46.294Z,2.90
2023-05-08T05:55:13.514Z,3.13
2023-05-08T05:57:40.799Z,2.93
2023-05-08T06:00:08.972Z,3.30
2023-05-08T06:02:39.574Z,2.50
2023-05-08T06:05:07.726Z,2.73
2023-05-08T06:07:35.655Z,2.60
2023-05-08T06:10:03.576Z,2.70
2023-05-08T06:12:33.914Z,2.70
2023-05-08T06:15:00.998Z,2.70
2023-05-08T06:17:28.095Z,2.40
2023-05-08T06:19:56.541Z,2.67
2023-05-08T06:22:24.473Z,2.60
2023-05-08T06:24:55.655Z,2.77
2023-05-08T06:27:23.184Z,3.00
2023-05-08T06:29:52.945Z,2.40
2023-05-08T06:32:21.279Z,2.50
2023-05-08T06:34:49.003Z,2.53
2023-05-08T06:37:16.200Z,2.60
2023-05-08T06:39:43.757Z,2.20
2023-05-08T06:42:10.937Z,2.73
2023-05-08T06:44:38.224Z,2.60
2023-05-08T06:47:05.389Z,2.40
2023-05-08T06:49:32.710Z,2.67
2023-05-08T06:51:59.777Z,2.23
2023-05-08T06:54:26.851Z,2.07
2023-05-08T06:56:54.675Z,2.77
2023-05-08T06:59:25.314Z,2.23
2023-05-08T07:01:52.667Z,2.20
2023-05-08T07:04:22.890Z,2.20
2023-05-08T07:06:50.201Z,2.23
2023-05-08T07:09:20.130Z,2.30
2023-05-08T07:11:48.080Z,2.10
2023-05-08T07:14:15.307Z,2.20
2023-05-08T07:16:42.618Z,2.53
2023-05-08T07:19:09.767Z,2.13
2023-05-08T07:21:40.142Z,3.17
2023-05-08T07:24:07.869Z,2.23
2023-05-08T07:26:34.956Z,2.30
2023-05-08T07:29:02.186Z,2.17
2023-05-08T07:31:29.362Z,2.50
2023-05-08T07:33:58.689Z,2.37
2023-05-08T07:36:25.825Z,2.70
2023-05-08T07:38:55.034Z,2.27
2023-05-08T07:41:22.205Z,2.30
2023-05-08T07:43:49.486Z,2.17
2023-05-08T07:46:18.682Z,2.00
2023-05-08T07:48:46.444Z,1.90
2023-05-08T07:51:15.136Z,2.10
2023-05-08T07:53:42.538Z,1.60
2023-05-08T07:56:09.756Z,1.73
2023-05-08T07:58:40.367Z,1.70
2023-05-08T08:01:07.719Z,1.70
2023-05-08T08:03:34.933Z,3.60
2023-05-08T08:06:02.217Z,1.67
2023-05-08T08:08:29.281Z,2.10
2023-05-08T08:10:56.526Z,1.30
2023-05-08T08:13:25.028Z,1.33
2023-05-08T08:15:52.185Z,1.60
2023-05-08T08:18:19.292Z,1.83
2023-05-08T08:20:47.130Z,1.60
2023-05-08T08:23:14.246Z,2.00
2023-05-08T08:25:41.619Z,1.50
2023-05-08T08:28:08.881Z,1.70
2023-05-08T08:30:36.014Z,1.90
2023-05-08T08:33:03.361Z,1.17
2023-05-08T08:35:30.624Z,1.80
2023-05-08T08:37:57.880Z,1.63
2023-05-08T08:40:25.400Z,1.70
2023-05-08T08:42:52.585Z,1.43
2023-05-08T08:45:19.832Z,1.77
2023-05-08T08:47:51.827Z,1.63
2023-05-08T08:50:22.055Z,1.40
2023-05-08T08:53:24.156Z,1.80
2023-05-08T08:55:53.842Z,1.50
2023-05-08T08:58:36.547Z,1.17
2023-05-08T09:01:07.794Z,1.50
2023-05-08T09:03:35.112Z,1.50
2023-05-08T09:06:02.678Z,1.13
2023-05-08T09:08:29.906Z,1.40
2023-05-08T09:10:57.119Z,1.20
2023-05-08T09:13:24.269Z,1.50
2023-05-08T09:15:51.495Z,1.50
2023-05-08T09:18:19.184Z,1.50
2023-05-08T09:20:46.954Z,1.23
2023-05-08T09:23:17.296Z,1.20
2023-05-08T09:25:47.809Z,1.20
2023-05-08T09:28:25.996Z,1.30
2023-05-08T09:31:00.004Z,1.30
2023-05-08T09:33:30.064Z,1.33
2023-05-08T09:35:58.132Z,1.03
2023-05-08T09:38:36.106Z,1.37
2023-05-08T09:41:15.664Z,1.23
2023-05-08T09:43:45.417Z,1.40
2023-05-08T09:46:27.335Z,1.30
2023-05-08T09:49:00.857Z,1.00
2023-05-08T09:51:31.670Z,1.40
2023-05-08T09:54:05.739Z,1.27
2023-05-08T09:56:39.468Z,1.70
2023-05-08T09:59:28.367Z,1.37
2023-05-08T10:01:56.572Z,1.20
2023-05-08T10:04:37.594Z,1.30
2023-05-08T10:07:05.185Z,1.37
2023-05-08T10:09:47.104Z,1.53
2023-05-08T10:12:18.241Z,1.40
2023-05-08T10:14:46.969Z,1.30
2023-05-08T10:17:24.582Z,1.17
2023-05-08T10:20:06.221Z,1.50
2023-05-08T10:22:37.730Z,1.07
2023-05-08T10:25:17.986Z,1.17
2023-05-08T10:28:24.107Z,1.30
2023-05-08T10:30:53.587Z,1.33
2023-05-08T10:33:31.717Z,1.20
2023-05-08T10:36:02.739Z,1.30
2023-05-08T10:38:32.817Z,1.20
2023-05-08T10:41:03.395Z,1.27
2023-05-08T10:43:31.434Z,1.50
2023-05-08T10:46:02.738Z,1.20
2023-05-08T10:48:56.421Z,1.08
2023-05-08T10:52:01.382Z,1.27
2023-05-08T10:55:17.042Z,0.93
2023-05-08T10:58:18.747Z,0.90
2023-05-08T11:00:59.546Z,0.73
2023-05-08T11:03:32.601Z,1.02
2023-05-08T11:06:04.228Z,1.05
2023-05-08T11:08:32.539Z,1.45
2023-05-08T11:11:00.116Z,1.98
2023-05-08T11:14:17.054Z,1.45
2023-05-08T11:17:02.472Z,1.13
2023-05-08T11:19:29.785Z,1.25
2023-05-08T11:22:16.294Z,1.45
2023-05-08T11:25:12.817Z,1.20
2023-05-08T11:27:51.922Z,0.95
2023-05-08T11:30:34.855Z,2.63
2023-05-08T11:33:05.117Z,1.20
2023-05-08T11:36:15.138Z,1.48
2023-05-08T11:38:44.277Z,1.63
2023-05-08T11:41:28.030Z,1.90
2023-05-08T11:44:14.890Z,2.40
2023-05-08T11:46:55.404Z,1.10
2023-05-08T11:49:29.415Z,1.30
2023-05-08T11:51:59.809Z,1.13
2023-05-08T11:54:31.622Z,0.93
2023-05-08T11:56:59.547Z,1.00
2023-05-08T11:59:26.811Z,1.40
2023-05-08T12:02:06.988Z,1.08
2023-05-08T12:04:47.494Z,1.10
2023-05-08T12:07:16.271Z,1.00
2023-05-08T12:09:43.424Z,1.45
2023-05-08T12:12:10.756Z,1.70
2023-05-08T12:14:37.820Z,2.00
2023-05-08T12:17:04.964Z,1.20
2023-05-08T12:19:32.149Z,1.48
2023-05-08T12:22:00.592Z,1.40
2023-05-08T12:24:27.719Z,1.30
2023-05-08T12:26:56.218Z,1.17
2023-05-08T12:29:24.040Z,1.85
2023-05-08T12:31:52.752Z,1.80
2023-05-08T12:34:20.660Z,0.80
2023-05-08T12:36:48.160Z,1.30
2023-05-08T12:39:21.502Z,1.38
2023-05-08T12:41:53.159Z,1.00
2023-05-08T12:44:26.663Z,1.27
2023-05-08T12:46:57.259Z,1.00
2023-05-08T12:49:32.368Z,0.82
2023-05-08T12:52:14.029Z,0.98
2023-05-08T12:54:50.083Z,1.10
2023-05-08T12:57:23.693Z,0.90
2023-05-08T13:00:04.334Z,1.00
2023-05-08T13:02:32.411Z,1.13
2023-05-08T13:05:03.435Z,0.98
2023-05-08T13:07:33.689Z,1.02
2023-05-08T13:10:04.708Z,1.13
2023-05-08T13:12:32.521Z,0.80
2023-05-08T13:15:00.447Z,1.10
2023-05-08T13:17:32.568Z,1.00
2023-05-08T13:20:05.907Z,0.77
2023-05-08T13:22:33.407Z,1.10
2023-05-08T13:25:03.984Z,1.25
2023-05-08T13:27:31.690Z,1.10
2023-05-08T13:29:58.783Z,0.85
2023-05-08T13:32:26.030Z,0.98
2023-05-08T13:34:55.225Z,1.35
2023-05-08T13:37:24.694Z,1.10
2023-05-08T13:39:51.885Z,1.15
2023-05-08T13:42:19.091Z,1.02
2023-05-08T13:44:46.220Z,1.17
2023-05-08T13:47:13.787Z,1.10
2023-05-08T13:49:47.247Z,1.10
2023-05-08T13:52:14.736Z,1.10
2023-05-08T13:54:42.136Z,1.10
2023-05-08T13:57:09.582Z,1.00
2023-05-08T13:59:39.889Z,0.80
2023-05-08T14:02:07.613Z,1.75
2023-05-08T14:04:34.869Z,0.88
2023-05-08T14:07:04.809Z,1.17
2023-05-08T14:09:32.269Z,0.80
2023-05-08T14:11:59.890Z,1.50
2023-05-08T14:14:28.584Z,1.42
2023-05-08T14:16:59.132Z,1.17
2023-05-08T14:19:35.087Z,1.10
2023-05-08T14:22:06.521Z,1.00
2023-05-08T14:24:33.767Z,1.20
2023-05-08T14:27:05.608Z,1.20
2023-05-08T14:29:34.200Z,1.13
2023-05-08T14:32:02.299Z,1.25
2023-05-08T14:34:29.629Z,1.80
2023-05-08T14:36:57.213Z,1.00
2023-05-08T14:39:24.481Z,1.13
2023-05-08T14:42:14.333Z,1.60
2023-05-08T14:44:39.005Z,1.20
2023-05-08T14:47:07.230Z,1.00
2023-05-08T14:49:38.445Z,1.17
2023-05-08T14:52:07.282Z,1.75
2023-05-08T14:54:37.898Z,1.83
2023-05-08T14:57:05.252Z,1.10
2023-05-08T14:59:32.321Z,1.30
2023-05-08T15:01:59.671Z,1.77
2023-05-08T15:04:29.911Z,1.50
2023-05-08T15:07:00.468Z,1.40
2023-05-08T15:09:27.654Z,1.40
2023-05-08T15:11:54.755Z,1.30
2023-05-08T15:14:22.112Z,1.20
2023-05-08T15:16:49.561Z,1.15
2023-05-08T15:19:17.372Z,1.45
2023-05-08T15:21:44.457Z,1.30
2023-05-08T15:24:11.667Z,1.65
2023-05-08T15:26:38.974Z,2.20
2023-05-08T15:29:08.460Z,2.70
2023-05-08T15:31:35.858Z,1.80
2023-05-08T15:34:02.952Z,2.42
2023-05-08T15:36:33.527Z,4.88
2023-05-08T15:39:00.749Z,3.28
2023-05-08T15:41:27.791Z,4.10
2023-05-08T15:43:54.930Z,14.75
2023-05-08T15:46:22.136Z,18.42
2023-05-08T15:48:49.265Z,7.32
2023-05-08T15:51:16.547Z,4.85
2023-05-08T15:53:44.354Z,3.67
2023-05-08T15:56:14.388Z,3.17
2023-05-08T15:58:41.714Z,2.80
2023-05-08T16:01:09.061Z,2.70
2023-05-08T16:03:36.531Z,2.10
2023-05-08T16:06:03.698Z,1.80
2023-05-08T16:08:31.261Z,1.90
2023-05-08T16:10:59.725Z,1.50
2023-05-08T16:13:28.225Z,1.80
2023-05-08T16:15:55.491Z,1.70
2023-05-08T16:18:22.581Z,1.90
2023-05-08T16:20:49.707Z,1.70
2023-05-08T16:23:17.109Z,2.00
2023-05-08T16:25:44.203Z,2.40
2023-05-08T16:28:14.252Z,2.20
2023-05-08T16:30:41.382Z,3.08
2023-05-08T16:33:08.901Z,2.20
2023-05-08T16:35:37.524Z,2.58
2023-05-08T16:38:04.760Z,4.28
2023-05-08T16:40:31.987Z,2.72
2023-05-08T16:43:04.846Z,3.10
2023-05-08T16:45:31.954Z,3.88
2023-05-08T16:47:59.028Z,4.75
2023-05-08T16:50:26.072Z,7.13
2023-05-08T16:52:53.161Z,6.82
2023-05-08T16:55:20.907Z,6.70
2023-05-08T16:57:48.330Z,6.28
2023-05-08T17:00:24.725Z,5.55
2023-05-08T17:02:52.004Z,5.13
2023-05-08T17:05:19.788Z,2.47
2023-05-08T17:07:51.635Z,2.95
2023-05-08T17:10:19.083Z,2.97
2023-05-08T17:12:46.348Z,2.80
2023-05-08T17:15:13.991Z,2.67
2023-05-08T17:17:41.339Z,5.20
2023-05-08T17:20:17.517Z,6.47
2023-05-08T17:22:44.956Z,6.68
2023-05-08T17:25:12.084Z,2.10
2023-05-08T17:27:39.177Z,1.10
2023-05-08T17:30:13.286Z,1.10
2023-05-08T17:32:40.679Z,1.42
2023-05-08T17:35:08.566Z,1.27
2023-05-08T17:37:35.692Z,1.17
2023-05-08T17:40:03.369Z,1.85
2023-05-08T17:42:30.603Z,2.00
2023-05-08T17:44:57.733Z,1.52
2023-05-08T17:47:24.846Z,1.20
2023-05-08T17:49:52.006Z,1.10
2023-05-08T17:52:19.100Z,1.20
2023-05-08T17:54:46.113Z,1.00
2023-05-08T17:57:13.226Z,1.08
2023-05-08T17:59:40.445Z,1.27
2023-05-08T18:02:07.480Z,1.20
2023-05-08T18:04:34.580Z,1.10
2023-05-08T18:07:01.714Z,1.60
2023-05-08T18:09:29.237Z,0.93
2023-05-08T18:12:02.270Z,0.80
2023-05-08T18:14:38.322Z,1.00
2023-05-08T18:17:06.019Z,1.20
2023-05-08T18:19:33.227Z,1.20
2023-05-08T18:22:00.314Z,1.30
2023-05-08T18:24:28.699Z,1.10
2023-05-08T18:26:55.912Z,1.20
2023-05-08T18:29:22.975Z,1.70
2023-05-08T18:31:50.652Z,1.40
2023-05-08T18:34:17.716Z,1.20
2023-05-08T18:36:44.917Z,1.20
2023-05-08T18:39:11.945Z,1.27
2023-05-08T18:41:39.181Z,1.30
2023-05-08T18:44:06.637Z,1.10
2023-05-08T18:46:33.827Z,1.10
2023-05-08T18:49:00.874Z,1.27
2023-05-08T18:51:28.118Z,1.43
2023-05-08T18:53:57.108Z,1.30
2023-05-08T18:56:24.264Z,1.20
2023-05-08T18:58:51.324Z,1.43
2023-05-08T19:01:20.041Z,1.50
2023-05-08T19:03:48.224Z,1.50
2023-05-08T19:06:16.881Z,1.13
2023-05-08T19:08:44.548Z,0.87
2023-05-08T19:11:11.840Z,1.43
2023-05-08T19:13:38.949Z,1.40
2023-05-08T19:16:06.833Z,1.53
2023-05-08T19:18:34.068Z,1.60
2023-05-08T19:21:02.231Z,1.33
2023-05-08T19:23:33.022Z,1.57
2023-05-08T19:26:00.112Z,1.80
2023-05-08T19:28:27.450Z,1.77
2023-05-08T19:30:54.989Z,1.57
2023-05-08T19:33:22.475Z,1.60
2023-05-08T19:35:49.655Z,1.90
2023-05-08T19:38:16.814Z,2.00
2023-05-08T19:40:56.296Z,1.63
2023-05-08T19:43:28.141Z,1.70
2023-05-08T19:45:56.195Z,1.60
2023-05-08T19:48:24.006Z,1.40
2023-05-08T19:50:53.868Z,1.67
2023-05-08T19:53:23.372Z,1.80
2023-05-08T19:55:50.730Z,1.67
2023-05-08T19:58:17.923Z,1.90
2023-05-08T20:00:51.039Z,2.20
2023-05-08T20:03:21.849Z,1.63
2023-05-08T20:05:51.801Z,2.10
2023-05-08T20:08:19.860Z,1.97
2023-05-08T20:10:53.240Z,1.73
2023-05-08T20:13:22.929Z,2.07
2023-05-08T20:15:51.622Z,1.80
2023-05-08T20:18:19.106Z,2.20
2023-05-08T20:20:49.121Z,2.00
2023-05-08T20:23:18.808Z,1.47
2023-05-08T20:25:47.711Z,2.20
2023-05-08T20:28:15.860Z,2.10
2023-05-08T20:30:42.958Z,2.07
2023-05-08T20:33:10.424Z,2.03
2023-05-08T20:35:37.958Z,1.73
2023-05-08T20:38:05.146Z,2.07
2023-05-08T20:40:33.541Z,1.77
2023-05-08T20:43:00.768Z,1.90
2023-05-08T20:45:28.136Z,1.87
2023-05-08T20:47:55.505Z,1.93
2023-05-08T20:50:22.649Z,1.90
2023-05-08T20:52:49.897Z,1.90
2023-05-08T20:55:16.992Z,2.13
2023-05-08T20:57:44.191Z,2.10
2023-05-08T21:00:12.011Z,1.83
2023-05-08T21:02:41.128Z,2.00
2023-05-08T21:05:09.293Z,2.00
2023-05-08T21:07:36.469Z,2.03
2023-05-08T21:10:03.894Z,2.30
2023-05-08T21:12:31.050Z,2.37
2023-05-08T21:14:58.074Z,2.20
2023-05-08T21:17:25.138Z,2.20
2023-05-08T21:19:52.230Z,2.47
2023-05-08T21:22:19.326Z,2.60
2023-05-08T21:24:46.355Z,2.30
2023-05-08T21:27:13.366Z,2.20
2023-05-08T21:29:40.660Z,2.53
2023-05-08T21:32:10.098Z,2.20
2023-05-08T21:34:37.630Z,2.20
2023-05-08T21:37:07.027Z,2.60
2023-05-08T21:39:34.276Z,2.20
2023-05-08T21:42:01.364Z,2.20
2023-05-08T21:44:31.191Z,2.20
2023-05-08T21:46:58.236Z,2.70
2023-05-08T21:49:27.615Z,2.20
2023-05-08T21:51:57.938Z,2.50
2023-05-08T21:54:24.985Z,2.30
2023-05-08T21:56:52.020Z,2.40
2023-05-08T21:59:19.466Z,2.40
2023-05-08T22:01:46.587Z,2.33
2023-05-08T22:04:13.757Z,2.23
2023-05-08T22:06:43.085Z,2.40
2023-05-08T22:09:10.233Z,2.43
2023-05-08T22:11:37.257Z,2.57
2023-05-08T22:14:04.334Z,2.50
2023-05-08T22:16:31.717Z,2.30
2023-05-08T22:18:58.977Z,2.10
2023-05-08T22:21:29.459Z,2.33
2023-05-08T22:23:57.189Z,2.17
2023-05-08T22:26:24.354Z,2.50
2023-05-08T22:28:51.612Z,2.10
2023-05-08T22:31:18.750Z,2.40
2023-05-08T22:33:45.993Z,2.57
2023-05-08T22:36:13.196Z,2.20
2023-05-08T22:38:40.753Z,2.37
2023-05-08T22:41:08.804Z,2.50
2023-05-08T22:43:36.604Z,2.63
2023-05-08T22:46:05.759Z,2.33
2023-05-08T22:48:33.332Z,2.73
2023-05-08T22:51:00.364Z,2.63
2023-05-08T22:53:27.464Z,2.60
2023-05-08T22:55:54.540Z,2.80
2023-05-08T22:58:21.627Z,2.60
2023-05-08T23:00:48.699Z,1.90
2023-05-08T23:03:16.501Z,2.90
2023-05-08T23:05:44.398Z,2.33
2023-05-08T23:08:11.767Z,2.60
2023-05-08T23:10:38.866Z,2.83
2023-05-08T23:13:06.113Z,3.10
2023-05-08T23:15:33.212Z,3.03
2023-05-08T23:18:00.651Z,2.77
2023-05-08T23:20:27.772Z,2.60
2023-05-08T23:22:55.247Z,2.60
2023-05-08T23:25:22.457Z,2.67
2023-05-08T23:27:49.481Z,2.70
2023-05-08T23:30:16.958Z,3.33
2023-05-08T23:32:45.151Z,2.53
2023-05-08T23:35:12.703Z,2.67
2023-05-08T23:37:40.045Z,3.20
2023-05-08T23:40:08.743Z,2.70
2023-05-08T23:42:37.124Z,2.70
2023-05-08T23:45:04.898Z,3.00
2023-05-08T23:47:32.108Z,3.13
2023-05-08T23:49:59.268Z,3.00
2023-05-08T23:52:26.776Z,2.83
2023-05-08T23:54:53.778Z,3.10
2023-05-08T23:57:20.912Z,2.67
2023-05-08T23:59:47.966Z,2.83
